AirNav   Air Wisconsin pilot careers
 
 932 users online  

PAOC Portage Creek Airport
Portage Creek, Alaska, USA


FAA INFORMATION EFFECTIVE 01 FEBRUARY 2018

Location

FAA Identifier: A14
Lat/Long: 58-54-23.4900N / 157-42-40.2000W
58-54.391500N / 157-42.670000W
58.9065250 / -157.7111667
(estimated)
Elevation: 129 ft. / 39.3 m (surveyed)
Variation: 21E (2010)
Time zone: UTC -9 (UTC -8 during Daylight Saving Time)
Zip code: 99576

Airport Operations

Airport use: Open to the public
Activation date: 08/1975
Control tower: no
ARTCC: ANCHORAGE CENTER
FSS: DILLINGHAM FLIGHT SERVICE STATION [907-842-5275]
Alternate FSS: ENA KENAI FLIGHT SERVICE STATION [1-866-864-1737]
NOTAMs facility: DLG (NOTAM-D service available)
Attendance: UNATNDD
Wind indicator: yes
Segmented circle: yes
VEGETATION OVERGROWING SEG CIRCLE.

Airport Communications

CTAF: 122.9
  • COMMUNICATIONS PRVDD BY DILLINGHAM RADIO ON FREQ 122.55 0745-2345 (KEMUK MOUNTAIN RCO) OTHER TIMES CTC KENAI AFSS.

Nearby radio navigation aids

VOR radial/distance  VOR name  Freq  Var
DLGr086/26.6DILLINGHAM VOR/DME116.4015E
AKNr274/31.7KING SALMON VORTAC112.8016E

 
NDB name  Hdg/Dist  Freq  Var  ID
WOOD RIVER087/26.542915EBTS -... - ...
CHINOOK273/30.735516EAUB .- ..- -...

Airport Services

Airframe service: NONE
Powerplant service: NONE
Bottled oxygen: NONE
Bulk oxygen: NONE

Runway Information

Runway 10/28

Dimensions: 1920 x 60 ft. / 585 x 18 m
Surface: gravel/dirt, in fair condition
VERY SOFT WITH DEEP LOOSE GRAVEL. FIRST 200 FT OF RY 28 CLSD WITH BRUSH GROWING ON EDGES.
Runway edge markings: RY MKD WITH REFLECTIVE ORANGE CONES.
Operational restrictions: SLOPES UP TO E END 1.5 %. NO LINE OF SIGHT BETWEEN RY ENDS.
RUNWAY 10  RUNWAY 28
Latitude: 58-54.481333N58-54.361167N
Longitude: 157-42.789833W157-42.226500W
Elevation: 99.7 ft.128.5 ft.
Traffic pattern: leftleft
Runway heading: 091 magnetic, 112 true271 magnetic, 292 true
Touchdown point: yes, no lightsyes, no lights
Obstructions: 11 ft. brush, 2 ft. from runway, 47 ft. left of centerline14 ft. brush, 3 ft. from runway, 71 ft. right of centerline

Runway 1/19

Dimensions: 1470 x 60 ft. / 448 x 18 m
Surface: gravel/dirt, in good condition
RY 01/19 SFC RUTS 4 IN X 6 IN DEEP 300 FT FM THLD RY 01 WHERE ACFT TURN AROUND FOR TKOF.
Runway edge markings: RY 01/19 MKD WITH REFLECTIVE ORANGE CONES.
RUNWAY 1  RUNWAY 19
Latitude: 58-54.245500N58-54.459333N
Longitude: 157-42.989500W157-42.772833W
Elevation: 79.8 ft.100.7 ft.
Traffic pattern: leftleft
Runway heading: 006 magnetic, 027 true186 magnetic, 207 true
Touchdown point: yes, no lightsyes, no lights
Obstructions: 25 ft. trees, 12 ft. from runway, 114 ft. left and right of centerline6 ft. brush, 5 ft. from runway, 105 ft. right of centerline

Airport Ownership and Management from official FAA records

Ownership: Publicly-owned
Owner: ALASKA DOT&PF CENTRAL REGION
PO BOX 196900
ANCHORAGE, AK 99519-6900
Phone 907-269-0760
Manager: NORMAN HAYANO
BOX 250
DILLINGHAM, AK 99576
Phone 907-842-5511

Airport Operational Statistics

Aircraft operations: avg 58/month *
100% air taxi
* for 12-month period ending 31 December 2013

Additional Remarks

RY COND NOT MNTRD; RCMD VISUAL INSPECTION PRIOR TO USE.
RY 10 & RY 01 - SAFETY AREAS SOFT; MAY BE UNUSBL. RY 28 SAFETY AREA ERODING NEAR BLUFF.
NO WINTER MAINT RY 10/28 FROM 1 OCT THRU MAY 1.
RY VERY SOFT; DEEP RUTS MAY DEVELOP WHEN SFC WET.
WX CAMERA AVBL ON INTERNET AT HTTP://AVCAMS.FAA.GOV
BRUSH AND TREES ENCROACHING ON ALL RY SFCS.

Instrument Procedures

There are no published instrument procedures at PAOC.

Some nearby airports with instrument procedures:

PFWS - South Naknek Nr 2 Airport (25 nm SE)
PFCL - Clarks Point Airport (26 nm W)
PADL - Dillingham Airport (26 nm W)
PANW - New Stuyahok Airport (34 nm N)
PAKN - King Salmon Airport (36 nm E)
 
Loc | Ops | Rwys | IFR | FBO | Links
Com | Nav | Svcs | Stats | Notes

Crowley
 
Area around PAOC (Portage Creek Airport)
 
Road maps at: MapQuest Bing Google
 
Aerial photo
WARNING: Photo may not be current or correct
Aerial photo of PAOC (Portage Creek Airport)
Photo by LL
Photo taken 03-Jul-2013
looking southwest.

Do you have a better or more recent aerial photo of Portage Creek Airport that you would like to share? If so, please send us your photo.

 
Sectional chart

 
Airport distance calculator
Flying to Portage Creek Airport? Find the distance to fly.

From to PAOC

Sunrise and sunset
Times for 24-Feb-2018
 Local
(UTC-9)
 Zulu
(UTC)
Morning civil twilight08:0017:00
Sunrise08:4117:41
Sunset18:4703:47
Evening civil twilight19:2804:28

Current date and time
Zulu (UTC)  24-Feb-2018 14:42:57
Local (UTC-9)  24-Feb-2018 05:42:57
 
METAR
PFWS 
25nm SE 
241356Z AUTO 25021G26KT 10SM CLR M02/M03 A2984 RMK AO2 PK WND 25028/1344 SLP112 T10171028 FZRANO
PFCL 
26nm W 
241356Z AUTO 25015G22KT 10SM BKN034 M01/M03 A2983 RMK AO2 PK WND 25028/1340 SLP096 T10111028 FZRANO TSNO
PADL 
26nm W 
241356Z AUTO 25007KT 210V300 9SM UP FEW022 BKN035 BKN042 M02/M03 A2980 RMK AO2 UPB33SNE33 SLP098 P0000 T10171033 FZRANO
PANW 
35nm N 
241356Z AUTO 23013KT 10SM CLR M04/M05 A2974 RMK AO2 SLP089 T10441050 FZRANO PNO $
PAKN 
36nm E 
241354Z AUTO 25016G25KT 9SM CLR M01/M04 A2982 RMK AO2 PK WND 26026/1344 SLP098 T10111039 TSNO
PAMB 
42nm W 
241356Z AUTO 26017G31KT 9SM -SN SCT026 SCT032 BKN040 M01/M04 A2981 RMK AO2 PK WND 27031/1351 SNE27B50 SLP102 P0000 T10061039 FZRANO $
PAII 
45nm S 
241356Z AUTO 27018G27KT 9SM FEW030 M01/M03 A2991 RMK AO2 PK WND 26027/1355 SLP131 T10061028 FZRANO
TAF
PADL 
26nm W 
241244Z 2413/2512 24010G20KT 6SM -SHSN BR BKN025 WS020/27050KT FM241500 24010G20KT 6SM -SHSN BR SCT010 BKN025 OVC050 WS020/27045KT FM241800 23015G30KT P6SM -SHSN SCT050 BKN120 FM250600 23008KT P6SM VCFG BKN008
NOTAMs
Click for the latest NOTAMs
NOTAMs are issued by the DoD/FAA and will open in a separate window not controlled by AirNav.

 

 
 

Would you like to see your business listed on this page?

 If your business provides an interesting product or service to pilots, flight crews, aircraft, or users of the Portage Creek Airport, you should consider listing it here.  To start the listing process, click on the button below
 
Add a business
 

Other Pages about Portage Creek Airport

Update a link
 
Copyright © AirNav, LLC. All rights reserved. Privacy Policy  Contact